createdAt,value
2023-02-14T00:00:07.389Z,456.00
2023-02-14T00:01:07.395Z,455.00
2023-02-14T00:02:07.338Z,453.00
2023-02-14T00:03:07.366Z,452.00
2023-02-14T00:04:07.365Z,453.00
2023-02-14T00:05:07.330Z,455.00
2023-02-14T00:06:07.233Z,456.00
2023-02-14T00:07:07.208Z,459.00
2023-02-14T00:08:07.169Z,458.00
2023-02-14T00:09:07.227Z,459.00
2023-02-14T00:10:07.125Z,459.00
2023-02-14T00:11:07.105Z,459.00
2023-02-14T00:12:07.067Z,460.00
2023-02-14T00:13:07.033Z,459.00
2023-02-14T00:14:07.011Z,458.00
2023-02-14T00:15:07.761Z,460.00
2023-02-14T00:16:07.024Z,461.00
2023-02-14T00:17:06.965Z,461.00
2023-02-14T00:18:06.908Z,459.00
2023-02-14T00:19:06.876Z,458.00
2023-02-14T00:20:06.851Z,459.00
2023-02-14T00:21:06.833Z,458.00
2023-02-14T00:22:06.795Z,455.00
2023-02-14T00:23:06.775Z,456.00
2023-02-14T00:24:06.744Z,456.00
2023-02-14T00:25:06.708Z,456.00
2023-02-14T00:26:06.706Z,452.00
2023-02-14T00:27:06.661Z,452.00
2023-02-14T00:28:06.660Z,454.00
2023-02-14T00:29:06.612Z,455.00
2023-02-14T00:30:06.662Z,458.00
2023-02-14T00:31:06.642Z,456.00
2023-02-14T00:32:06.566Z,455.00
2023-02-14T00:33:06.481Z,454.00
2023-02-14T00:34:06.464Z,454.00
2023-02-14T00:35:06.423Z,453.00
2023-02-14T00:36:06.417Z,453.00
2023-02-14T00:37:06.398Z,452.00
2023-02-14T00:38:06.381Z,452.00
2023-02-14T00:39:06.320Z,452.00
2023-02-14T00:40:06.293Z,454.00
2023-02-14T00:41:06.267Z,453.00
2023-02-14T00:42:06.232Z,454.00
2023-02-14T00:43:06.217Z,455.00
2023-02-14T00:44:06.152Z,458.00
2023-02-14T00:45:06.118Z,459.00
2023-02-14T00:46:06.173Z,462.00
2023-02-14T00:47:06.128Z,461.00
2023-02-14T00:48:06.060Z,461.00
2023-02-14T00:49:06.035Z,463.00
2023-02-14T00:50:05.991Z,462.00
2023-02-14T00:51:05.955Z,461.00
2023-02-14T00:52:05.951Z,461.00
2023-02-14T00:53:05.921Z,460.00
2023-02-14T00:54:05.878Z,459.00
2023-02-14T00:55:05.869Z,460.00
2023-02-14T00:56:05.816Z,458.00
2023-02-14T00:57:05.813Z,457.00
2023-02-14T00:58:05.784Z,461.00
2023-02-14T00:59:05.730Z,460.00
2023-02-14T01:00:05.706Z,460.00
2023-02-14T01:01:05.701Z,459.00
2023-02-14T01:02:05.795Z,459.00
2023-02-14T01:03:05.651Z,460.00
2023-02-14T01:04:06.305Z,463.00
2023-02-14T01:05:05.569Z,462.00
2023-02-14T01:06:05.534Z,463.00
2023-02-14T01:07:05.536Z,463.00
2023-02-14T01:08:05.481Z,462.00
2023-02-14T01:09:05.447Z,461.00
2023-02-14T01:10:05.451Z,461.00
2023-02-14T01:11:05.410Z,461.00
2023-02-14T01:12:05.379Z,460.00
2023-02-14T01:13:05.340Z,459.00
2023-02-14T01:14:05.314Z,458.00
2023-02-14T01:15:05.251Z,458.00
2023-02-14T01:16:05.242Z,458.00
2023-02-14T01:17:05.226Z,460.00
2023-02-14T01:18:05.751Z,460.00
2023-02-14T01:19:05.149Z,461.00
2023-02-14T01:20:05.080Z,458.00
2023-02-14T01:21:05.076Z,458.00
2023-02-14T01:22:05.046Z,456.00
2023-02-14T01:23:05.032Z,455.00
2023-02-14T01:24:04.996Z,456.00
2023-02-14T01:25:05.052Z,455.00
2023-02-14T01:26:04.946Z,455.00
2023-02-14T01:27:04.892Z,456.00
2023-02-14T01:28:04.893Z,454.00
2023-02-14T01:29:04.878Z,450.00
2023-02-14T01:30:04.887Z,453.00
2023-02-14T01:31:04.824Z,456.00
2023-02-14T01:32:04.853Z,457.00
2023-02-14T01:33:04.784Z,458.00
2023-02-14T01:34:04.745Z,459.00
2023-02-14T01:35:04.694Z,461.00
2023-02-14T01:36:04.644Z,459.00
2023-02-14T01:37:04.603Z,459.00
2023-02-14T01:38:04.628Z,460.00
2023-02-14T01:39:04.571Z,459.00
2023-02-14T01:40:04.530Z,454.00
2023-02-14T01:41:04.506Z,454.00
2023-02-14T01:42:04.482Z,450.00
2023-02-14T01:43:04.440Z,451.00
2023-02-14T01:44:04.441Z,452.00
2023-02-14T01:45:04.384Z,454.00
2023-02-14T01:46:04.424Z,454.00
2023-02-14T01:47:04.304Z,455.00
2023-02-14T01:48:04.309Z,455.00
2023-02-14T01:49:04.278Z,454.00
2023-02-14T01:50:04.234Z,454.00
2023-02-14T01:51:04.215Z,452.00
2023-02-14T01:52:04.475Z,450.00
2023-02-14T01:53:04.164Z,452.00
2023-02-14T01:54:04.118Z,451.00
2023-02-14T01:55:04.080Z,450.00
2023-02-14T01:56:04.052Z,452.00
2023-02-14T01:57:04.032Z,450.00
2023-02-14T01:58:04.025Z,452.00
2023-02-14T01:59:03.959Z,450.00
2023-02-14T02:00:03.954Z,453.00
2023-02-14T02:01:04.252Z,454.00
2023-02-14T02:02:03.999Z,454.00
2023-02-14T02:03:03.853Z,451.00
2023-02-14T02:04:03.827Z,453.00
2023-02-14T02:05:03.799Z,454.00
2023-02-14T02:06:03.744Z,454.00
2023-02-14T02:07:03.732Z,455.00
2023-02-14T02:08:03.690Z,457.00
2023-02-14T02:09:03.699Z,457.00
2023-02-14T02:10:03.633Z,457.00
2023-02-14T02:11:03.599Z,458.00
2023-02-14T02:12:03.574Z,457.00
2023-02-14T02:13:03.541Z,454.00
2023-02-14T02:14:04.053Z,454.00
2023-02-14T02:15:03.469Z,452.00
2023-02-14T02:16:03.464Z,453.00
2023-02-14T02:17:03.431Z,452.00
2023-02-14T02:18:03.443Z,453.00
2023-02-14T02:19:03.381Z,453.00
2023-02-14T02:20:03.346Z,453.00
2023-02-14T02:21:03.298Z,450.00
2023-02-14T02:22:03.304Z,453.00
2023-02-14T02:23:03.270Z,453.00
2023-02-14T02:24:03.230Z,450.00
2023-02-14T02:25:03.188Z,451.00
2023-02-14T02:26:03.155Z,451.00
2023-02-14T02:27:03.122Z,452.00
2023-02-14T02:28:03.111Z,453.00
2023-02-14T02:29:03.093Z,454.00
2023-02-14T02:30:03.056Z,455.00
2023-02-14T02:31:03.401Z,455.00
2023-02-14T02:32:03.124Z,454.00
2023-02-14T02:33:02.961Z,455.00
2023-02-14T02:34:02.963Z,453.00
2023-02-14T02:35:02.906Z,454.00
2023-02-14T02:36:02.877Z,455.00
2023-02-14T02:37:02.881Z,453.00
2023-02-14T02:38:02.842Z,453.00
2023-02-14T02:39:02.803Z,454.00
2023-02-14T02:40:02.770Z,453.00
2023-02-14T02:41:02.765Z,455.00
2023-02-14T02:42:02.705Z,455.00
2023-02-14T02:43:02.678Z,454.00
2023-02-14T02:44:03.801Z,453.00
2023-02-14T02:45:02.618Z,454.00
2023-02-14T02:46:02.655Z,457.00
2023-02-14T02:47:02.601Z,456.00
2023-02-14T02:48:02.546Z,454.00
2023-02-14T02:49:02.519Z,454.00
2023-02-14T02:50:02.497Z,455.00
2023-02-14T02:51:02.573Z,455.00
2023-02-14T02:52:02.432Z,453.00
2023-02-14T02:53:02.402Z,452.00
2023-02-14T02:54:02.376Z,453.00
2023-02-14T02:55:02.343Z,455.00
2023-02-14T02:56:02.328Z,451.00
2023-02-14T02:57:02.289Z,453.00
2023-02-14T02:58:02.255Z,452.00
2023-02-14T02:59:02.229Z,453.00
2023-02-14T03:00:02.230Z,452.00
2023-02-14T03:01:02.437Z,453.00
2023-02-14T03:02:02.158Z,454.00
2023-02-14T03:03:02.139Z,455.00
2023-02-14T03:04:02.103Z,456.00
2023-02-14T03:05:02.210Z,459.00
2023-02-14T03:06:02.800Z,457.00
2023-02-14T03:07:02.048Z,456.00
2023-02-14T03:08:01.991Z,455.00
2023-02-14T03:09:01.967Z,453.00
2023-02-14T03:10:01.960Z,451.00
2023-02-14T03:11:02.208Z,453.00
2023-02-14T03:12:01.877Z,450.00
2023-02-14T03:13:01.881Z,449.00
2023-02-14T03:14:01.849Z,449.00
2023-02-14T03:15:01.832Z,451.00
2023-02-14T03:16:01.902Z,454.00
2023-02-14T03:17:01.764Z,453.00
2023-02-14T03:18:01.738Z,454.00
2023-02-14T03:19:01.724Z,454.00
2023-02-14T03:20:01.705Z,454.00
2023-02-14T03:21:02.013Z,456.00
2023-02-14T03:22:01.625Z,457.00
2023-02-14T03:23:01.601Z,459.00
2023-02-14T03:24:01.578Z,456.00
2023-02-14T03:25:01.574Z,453.00
2023-02-14T03:26:01.521Z,453.00
2023-02-14T03:27:01.487Z,454.00
2023-02-14T03:28:01.475Z,454.00
2023-02-14T03:29:01.444Z,457.00
2023-02-14T03:30:01.466Z,455.00
2023-02-14T03:31:01.936Z,455.00
2023-02-14T03:32:01.468Z,455.00
2023-02-14T03:33:01.352Z,453.00
2023-02-14T03:34:02.317Z,456.00
2023-02-14T03:35:01.311Z,456.00
2023-02-14T03:36:01.278Z,455.00
2023-02-14T03:37:01.288Z,454.00
2023-02-14T03:38:01.224Z,455.00
2023-02-14T03:39:01.223Z,456.00
2023-02-14T03:40:01.254Z,457.00
2023-02-14T03:41:01.605Z,458.00
2023-02-14T03:42:01.171Z,454.00
2023-02-14T03:43:01.137Z,455.00
2023-02-14T03:44:01.140Z,456.00
2023-02-14T03:45:01.136Z,456.00
2023-02-14T03:46:01.116Z,458.00
2023-02-14T03:47:01.113Z,457.00
2023-02-14T03:48:01.042Z,457.00
2023-02-14T03:49:01.022Z,455.00
2023-02-14T03:50:01.009Z,455.00
2023-02-14T03:51:01.284Z,454.00
2023-02-14T03:52:00.938Z,454.00
2023-02-14T03:53:00.912Z,452.00
2023-02-14T03:54:00.908Z,453.00
2023-02-14T03:55:00.913Z,453.00
2023-02-14T03:56:00.895Z,452.00
2023-02-14T03:57:00.844Z,449.00
2023-02-14T03:58:00.806Z,451.00
2023-02-14T03:59:00.773Z,454.00
2023-02-14T04:00:00.749Z,452.00
2023-02-14T04:01:01.269Z,453.00
2023-02-14T04:02:00.762Z,452.00
2023-02-14T04:03:00.660Z,451.00
2023-02-14T04:04:00.680Z,452.00
2023-02-14T04:05:00.650Z,450.00
2023-02-14T04:06:00.589Z,451.00
2023-02-14T04:07:00.555Z,451.00
2023-02-14T04:08:00.519Z,450.00
2023-02-14T04:09:00.522Z,454.00
2023-02-14T04:10:00.477Z,452.00
2023-02-14T04:11:00.878Z,451.00
2023-02-14T04:12:00.477Z,451.00
2023-02-14T04:13:00.400Z,449.00
2023-02-14T04:14:00.406Z,449.00
2023-02-14T04:15:00.342Z,448.00
2023-02-14T04:16:00.428Z,451.00
2023-02-14T04:17:00.314Z,449.00
2023-02-14T04:18:00.255Z,450.00
2023-02-14T04:19:00.226Z,451.00
2023-02-14T04:20:00.212Z,451.00
2023-02-14T04:21:00.589Z,450.00
2023-02-14T04:22:00.182Z,450.00
2023-02-14T04:23:01.844Z,451.00
2023-02-14T04:24:00.140Z,448.00
2023-02-14T04:25:00.155Z,448.00
2023-02-14T04:26:00.111Z,450.00
2023-02-14T04:27:00.107Z,451.00
2023-02-14T04:28:00.014Z,455.00
2023-02-14T04:28:59.996Z,456.00
2023-02-14T04:30:00.031Z,456.00
2023-02-14T04:31:00.483Z,454.00
2023-02-14T04:32:00.110Z,454.00
2023-02-14T04:32:59.904Z,453.00
2023-02-14T04:33:59.913Z,451.00
2023-02-14T04:34:59.864Z,453.00
2023-02-14T04:35:59.827Z,453.00
2023-02-14T04:36:59.827Z,455.00
2023-02-14T04:37:59.763Z,455.00
2023-02-14T04:38:59.747Z,458.00
2023-02-14T04:39:59.739Z,458.00
2023-02-14T04:41:00.030Z,459.00
2023-02-14T04:41:59.678Z,460.00
2023-02-14T04:42:59.661Z,459.00
2023-02-14T04:43:59.677Z,458.00
2023-02-14T04:44:59.607Z,459.00
2023-02-14T04:45:59.614Z,459.00
2023-02-14T04:46:59.563Z,459.00
2023-02-14T04:47:59.541Z,459.00
2023-02-14T04:48:59.518Z,458.00
2023-02-14T04:49:59.500Z,457.00
2023-02-14T04:50:59.812Z,457.00
2023-02-14T04:51:59.462Z,458.00
2023-02-14T04:52:59.454Z,460.00
2023-02-14T04:53:59.411Z,462.00
2023-02-14T04:54:59.389Z,459.00
2023-02-14T04:55:59.353Z,458.00
2023-02-14T04:56:59.352Z,454.00
2023-02-14T04:57:59.374Z,455.00
2023-02-14T04:58:59.278Z,453.00
2023-02-14T04:59:59.240Z,452.00
2023-02-14T05:00:59.629Z,450.00
2023-02-14T05:01:59.247Z,449.00
2023-02-14T05:02:59.159Z,449.00
2023-02-14T05:03:59.127Z,449.00
2023-02-14T05:04:59.104Z,450.00
2023-02-14T05:05:59.114Z,450.00
2023-02-14T05:06:59.073Z,452.00
2023-02-14T05:07:59.018Z,452.00
2023-02-14T05:08:59.011Z,454.00
2023-02-14T05:09:58.964Z,453.00
2023-02-14T05:10:59.467Z,454.00
2023-02-14T05:11:58.916Z,453.00
2023-02-14T05:12:58.952Z,451.00
2023-02-14T05:13:58.859Z,451.00
2023-02-14T05:14:58.889Z,450.00
2023-02-14T05:15:58.880Z,451.00
2023-02-14T05:16:58.796Z,450.00
2023-02-14T05:17:58.766Z,452.00
2023-02-14T05:18:58.792Z,454.00
2023-02-14T05:19:58.762Z,454.00
2023-02-14T05:20:59.037Z,454.00
2023-02-14T05:21:58.685Z,451.00
2023-02-14T05:22:58.670Z,449.00
2023-02-14T05:23:58.633Z,452.00
2023-02-14T05:24:58.604Z,454.00
2023-02-14T05:25:58.598Z,452.00
2023-02-14T05:26:58.577Z,453.00
2023-02-14T05:27:58.553Z,450.00
2023-02-14T05:28:58.517Z,449.00
2023-02-14T05:29:58.519Z,447.00
2023-02-14T05:30:59.126Z,448.00
2023-02-14T05:31:58.504Z,450.00
2023-02-14T05:32:58.449Z,452.00
2023-02-14T05:33:58.418Z,456.00
2023-02-14T05:35:00.764Z,457.00
2023-02-14T05:35:58.673Z,454.00
2023-02-14T05:36:58.597Z,456.00
2023-02-14T05:37:58.566Z,457.00
2023-02-14T05:38:58.540Z,458.00
2023-02-14T05:39:58.509Z,459.00
2023-02-14T05:40:58.888Z,460.00
2023-02-14T05:41:59.389Z,464.00
2023-02-14T05:42:58.451Z,460.00
2023-02-14T05:43:58.414Z,460.00
2023-02-14T05:44:58.404Z,458.00
2023-02-14T05:45:58.491Z,458.00
2023-02-14T05:46:58.340Z,459.00
2023-02-14T05:47:58.325Z,459.00
2023-02-14T05:48:58.298Z,463.00
2023-02-14T05:49:58.333Z,461.00
2023-02-14T05:50:58.710Z,467.00
2023-02-14T05:51:58.349Z,466.00
2023-02-14T05:52:58.341Z,466.00
2023-02-14T05:53:58.301Z,468.00
2023-02-14T05:54:58.286Z,469.00
2023-02-14T05:55:58.255Z,469.00
2023-02-14T05:56:58.272Z,468.00
2023-02-14T05:57:58.254Z,467.00
2023-02-14T05:58:58.260Z,465.00
2023-02-14T05:59:58.316Z,463.00
2023-02-14T06:00:58.734Z,461.00
2023-02-14T06:01:58.349Z,461.00
2023-02-14T06:02:58.333Z,461.00
2023-02-14T06:03:58.301Z,461.00
2023-02-14T06:04:58.292Z,456.00
2023-02-14T06:05:58.257Z,457.00
2023-02-14T06:06:58.245Z,455.00
2023-02-14T06:07:58.205Z,455.00
2023-02-14T06:08:58.233Z,455.00
2023-02-14T06:09:58.253Z,457.00
2023-02-14T06:10:58.671Z,456.00
2023-02-14T06:11:58.264Z,458.00
2023-02-14T06:12:58.235Z,453.00
2023-02-14T06:13:58.206Z,455.00
2023-02-14T06:14:58.203Z,454.00
2023-02-14T06:15:58.182Z,453.00
2023-02-14T06:16:58.168Z,452.00
2023-02-14T06:17:58.160Z,451.00
2023-02-14T06:18:58.148Z,450.00
2023-02-14T06:19:58.168Z,451.00
2023-02-14T06:20:59.239Z,453.00
2023-02-14T06:21:58.177Z,452.00
2023-02-14T06:22:58.173Z,454.00
2023-02-14T06:23:58.127Z,456.00
2023-02-14T06:24:58.114Z,455.00
2023-02-14T06:25:58.113Z,455.00
2023-02-14T06:26:58.151Z,455.00
2023-02-14T06:27:58.119Z,456.00
2023-02-14T06:28:58.101Z,458.00
2023-02-14T06:29:58.153Z,458.00
2023-02-14T06:30:58.260Z,461.00
2023-02-14T06:31:58.243Z,460.00
2023-02-14T06:32:58.020Z,458.00
2023-02-14T06:33:58.167Z,458.00
2023-02-14T06:34:57.966Z,456.00
2023-02-14T06:35:57.947Z,456.00
2023-02-14T06:36:57.934Z,455.00
2023-02-14T06:37:57.891Z,454.00
2023-02-14T06:38:57.893Z,453.00
2023-02-14T06:39:57.853Z,454.00
2023-02-14T06:40:59.766Z,454.00
2023-02-14T06:41:57.809Z,456.00
2023-02-14T06:42:57.814Z,458.00
2023-02-14T06:43:57.774Z,457.00
2023-02-14T06:44:57.732Z,459.00
2023-02-14T06:45:57.799Z,458.00
2023-02-14T06:46:57.705Z,460.00
2023-02-14T06:47:57.683Z,463.00
2023-02-14T06:48:57.645Z,460.00
2023-02-14T06:49:57.638Z,458.00
2023-02-14T06:50:58.166Z,458.00
2023-02-14T06:51:58.386Z,456.00
2023-02-14T06:52:57.577Z,455.00
2023-02-14T06:53:57.550Z,452.00
2023-02-14T06:54:57.538Z,451.00
2023-02-14T06:55:57.524Z,452.00
2023-02-14T06:56:57.490Z,452.00
2023-02-14T06:57:57.494Z,455.00
2023-02-14T06:58:57.467Z,457.00
2023-02-14T06:59:57.468Z,456.00
2023-02-14T07:00:57.600Z,456.00
2023-02-14T07:01:57.423Z,457.00
2023-02-14T07:02:57.456Z,456.00
2023-02-14T07:03:57.877Z,454.00
2023-02-14T07:04:57.348Z,454.00
2023-02-14T07:05:57.344Z,453.00
2023-02-14T07:06:57.309Z,455.00
2023-02-14T07:07:57.286Z,456.00
2023-02-14T07:08:57.275Z,457.00
2023-02-14T07:09:57.234Z,455.00
2023-02-14T07:10:57.461Z,455.00
2023-02-14T07:11:57.214Z,455.00
2023-02-14T07:12:57.176Z,457.00
2023-02-14T07:13:57.158Z,458.00
2023-02-14T07:14:57.131Z,460.00
2023-02-14T07:15:57.158Z,463.00
2023-02-14T07:16:57.144Z,464.00
2023-02-14T07:17:57.078Z,459.00
2023-02-14T07:18:57.112Z,460.00
2023-02-14T07:19:57.081Z,457.00
2023-02-14T07:20:58.501Z,458.00
2023-02-14T07:21:57.041Z,458.00
2023-02-14T07:22:57.037Z,457.00
2023-02-14T07:23:56.986Z,456.00
2023-02-14T07:24:56.928Z,454.00
2023-02-14T07:25:56.959Z,454.00
2023-02-14T07:26:56.932Z,456.00
2023-02-14T07:27:56.874Z,461.00
2023-02-14T07:28:56.872Z,460.00
2023-02-14T07:29:56.851Z,460.00
2023-02-14T07:30:56.897Z,458.00
2023-02-14T07:31:56.923Z,459.00
2023-02-14T07:32:56.764Z,460.00
2023-02-14T07:33:56.786Z,460.00
2023-02-14T07:34:56.706Z,460.00
2023-02-14T07:35:56.722Z,459.00
2023-02-14T07:36:56.663Z,457.00
2023-02-14T07:37:56.648Z,457.00
2023-02-14T07:38:56.736Z,460.00
2023-02-14T07:39:56.596Z,457.00
2023-02-14T07:40:56.592Z,455.00
2023-02-14T07:41:56.530Z,456.00
2023-02-14T07:42:56.507Z,456.00
2023-02-14T07:43:56.503Z,458.00
2023-02-14T07:44:56.474Z,458.00
2023-02-14T07:45:56.496Z,457.00
2023-02-14T07:46:56.434Z,456.00
2023-02-14T07:47:56.437Z,455.00
2023-02-14T07:48:56.399Z,456.00
2023-02-14T07:49:56.410Z,453.00
2023-02-14T07:50:56.344Z,454.00
2023-02-14T07:51:56.316Z,452.00
2023-02-14T07:52:56.313Z,450.00
2023-02-14T07:53:56.257Z,448.00
2023-02-14T07:54:56.256Z,450.00
2023-02-14T07:55:56.191Z,452.00
2023-02-14T07:56:56.168Z,453.00
2023-02-14T07:57:56.142Z,457.00
2023-02-14T07:58:56.112Z,456.00
2023-02-14T07:59:56.125Z,454.00
2023-02-14T08:00:56.065Z,455.00
2023-02-14T08:01:56.102Z,453.00
2023-02-14T08:02:56.007Z,454.00
2023-02-14T08:03:55.963Z,454.00
2023-02-14T08:04:55.958Z,454.00
2023-02-14T08:05:56.007Z,454.00
2023-02-14T08:06:55.896Z,455.00
2023-02-14T08:07:55.866Z,456.00
2023-02-14T08:08:55.835Z,456.00
2023-02-14T08:09:55.816Z,459.00
2023-02-14T08:10:55.772Z,461.00
2023-02-14T08:11:55.738Z,462.00
2023-02-14T08:12:55.704Z,463.00
2023-02-14T08:13:55.799Z,463.00
2023-02-14T08:14:55.651Z,460.00
2023-02-14T08:15:55.695Z,459.00
2023-02-14T08:16:55.614Z,459.00
2023-02-14T08:17:55.574Z,458.00
2023-02-14T08:18:55.550Z,454.00
2023-02-14T08:19:55.536Z,455.00
2023-02-14T08:20:55.558Z,458.00
2023-02-14T08:21:55.476Z,458.00
2023-02-14T08:22:55.649Z,457.00
2023-02-14T08:23:56.431Z,458.00
2023-02-14T08:24:55.384Z,458.00
2023-02-14T08:25:55.389Z,460.00
2023-02-14T08:26:55.918Z,465.00
2023-02-14T08:27:55.904Z,465.00
2023-02-14T08:28:55.248Z,464.00
2023-02-14T08:29:55.267Z,465.00
2023-02-14T08:30:55.240Z,462.00
2023-02-14T08:31:55.266Z,461.00
2023-02-14T08:32:55.146Z,460.00
2023-02-14T08:33:55.076Z,461.00
2023-02-14T08:34:55.088Z,459.00
2023-02-14T08:35:55.014Z,458.00
2023-02-14T08:36:55.006Z,459.00
2023-02-14T08:37:54.983Z,459.00
2023-02-14T08:38:54.929Z,460.00
2023-02-14T08:39:54.906Z,460.00
2023-02-14T08:40:54.896Z,460.00
2023-02-14T08:41:54.863Z,461.00
2023-02-14T08:42:54.836Z,461.00
2023-02-14T08:43:54.827Z,460.00
2023-02-14T08:44:54.770Z,462.00
2023-02-14T08:45:54.785Z,461.00
2023-02-14T08:46:54.754Z,459.00
2023-02-14T08:47:54.719Z,460.00
2023-02-14T08:48:54.691Z,460.00
2023-02-14T08:49:54.673Z,460.00
2023-02-14T08:50:54.650Z,458.00
2023-02-14T08:51:54.593Z,457.00
2023-02-14T08:52:54.572Z,456.00
2023-02-14T08:53:54.549Z,456.00
2023-02-14T08:54:54.512Z,458.00
2023-02-14T08:55:54.951Z,462.00
2023-02-14T08:56:54.473Z,459.00
2023-02-14T08:57:54.440Z,460.00
2023-02-14T08:58:54.438Z,458.00
2023-02-14T08:59:54.378Z,459.00
2023-02-14T09:00:54.523Z,462.00
2023-02-14T09:01:54.333Z,463.00
2023-02-14T09:02:54.378Z,461.00
2023-02-14T09:03:54.382Z,459.00
2023-02-14T09:04:54.258Z,458.00
2023-02-14T09:05:54.284Z,459.00
2023-02-14T09:06:54.203Z,462.00
2023-02-14T09:07:54.150Z,463.00
2023-02-14T09:08:54.152Z,463.00
2023-02-14T09:09:54.141Z,463.00
2023-02-14T09:10:54.117Z,463.00
2023-02-14T09:11:54.050Z,461.00
2023-02-14T09:12:54.019Z,460.00
2023-02-14T09:13:54.015Z,461.00
2023-02-14T09:14:54.006Z,463.00
2023-02-14T09:15:53.931Z,462.00
2023-02-14T09:16:53.992Z,463.00
2023-02-14T09:17:53.901Z,461.00
2023-02-14T09:18:53.903Z,460.00
2023-02-14T09:19:53.867Z,459.00
2023-02-14T09:20:53.880Z,461.00
2023-02-14T09:21:53.860Z,457.00
2023-02-14T09:22:53.773Z,458.00
2023-02-14T09:23:53.748Z,458.00
2023-02-14T09:24:53.744Z,459.00
2023-02-14T09:25:53.703Z,456.00
2023-02-14T09:26:53.671Z,456.00
2023-02-14T09:27:53.665Z,460.00
2023-02-14T09:28:53.624Z,460.00
2023-02-14T09:29:53.679Z,458.00
2023-02-14T09:30:54.591Z,457.00
2023-02-14T09:31:54.099Z,455.00
2023-02-14T09:32:53.520Z,454.00
2023-02-14T09:33:53.480Z,453.00
2023-02-14T09:34:53.454Z,455.00
2023-02-14T09:35:53.450Z,454.00
2023-02-14T09:36:53.396Z,454.00
2023-02-14T09:37:53.361Z,457.00
2023-02-14T09:38:53.323Z,460.00
2023-02-14T09:39:53.324Z,460.00
2023-02-14T09:40:53.281Z,460.00
2023-02-14T09:41:53.252Z,460.00
2023-02-14T09:42:53.227Z,460.00
2023-02-14T09:43:53.196Z,457.00
2023-02-14T09:44:53.153Z,457.00
2023-02-14T09:45:53.184Z,461.00
2023-02-14T09:46:53.927Z,461.00
2023-02-14T09:47:53.021Z,462.00
2023-02-14T09:48:53.069Z,461.00
2023-02-14T09:49:53.066Z,461.00
2023-02-14T09:50:52.926Z,458.00
2023-02-14T09:51:52.941Z,456.00
2023-02-14T09:52:52.900Z,458.00
2023-02-14T09:53:52.861Z,458.00
2023-02-14T09:54:52.827Z,458.00
2023-02-14T09:55:52.765Z,457.00
2023-02-14T09:56:52.777Z,455.00
2023-02-14T09:57:52.736Z,454.00
2023-02-14T09:58:52.701Z,453.00
2023-02-14T09:59:52.696Z,453.00
2023-02-14T10:00:52.690Z,454.00
2023-02-14T10:01:52.695Z,452.00
2023-02-14T10:02:52.574Z,453.00
2023-02-14T10:03:52.548Z,453.00
2023-02-14T10:04:52.565Z,455.00
2023-02-14T10:05:52.581Z,459.00
2023-02-14T10:06:52.537Z,459.00
2023-02-14T10:07:52.486Z,457.00
2023-02-14T10:08:52.946Z,456.00
2023-02-14T10:09:52.960Z,456.00
2023-02-14T10:10:52.928Z,457.00
2023-02-14T10:11:52.343Z,456.00
2023-02-14T10:12:52.306Z,457.00
2023-02-14T10:13:52.943Z,456.00
2023-02-14T10:14:52.239Z,453.00
2023-02-14T10:15:52.173Z,452.00
2023-02-14T10:16:52.198Z,454.00
2023-02-14T10:17:52.969Z,452.00
2023-02-14T10:18:52.094Z,451.00
2023-02-14T10:19:52.045Z,452.00
2023-02-14T10:20:51.997Z,452.00
2023-02-14T10:21:51.959Z,451.00
2023-02-14T10:22:51.920Z,452.00
2023-02-14T10:23:51.912Z,455.00
2023-02-14T10:24:51.853Z,454.00
2023-02-14T10:25:51.830Z,452.00
2023-02-14T10:26:51.788Z,453.00
2023-02-14T10:27:51.741Z,454.00
2023-02-14T10:28:51.743Z,452.00
2023-02-14T10:29:51.734Z,452.00
2023-02-14T10:30:51.685Z,452.00
2023-02-14T10:31:51.699Z,452.00
2023-02-14T10:32:51.637Z,452.00
2023-02-14T10:33:51.550Z,453.00
2023-02-14T10:34:51.535Z,454.00
2023-02-14T10:35:51.514Z,456.00
2023-02-14T10:36:51.440Z,457.00
2023-02-14T10:37:51.454Z,452.00
2023-02-14T10:38:51.414Z,450.00
2023-02-14T10:39:51.374Z,452.00
2023-02-14T10:40:51.302Z,450.00
2023-02-14T10:41:51.263Z,450.00
2023-02-14T10:42:51.503Z,454.00
2023-02-14T10:43:51.180Z,457.00
2023-02-14T10:44:51.126Z,457.00
2023-02-14T10:45:51.092Z,458.00
2023-02-14T10:46:51.971Z,460.00
2023-02-14T10:47:51.109Z,458.00
2023-02-14T11:00:53.507Z,452.00
2023-02-14T11:01:50.455Z,453.00
2023-02-14T11:02:50.437Z,450.00
2023-02-14T11:03:50.412Z,450.00
2023-02-14T11:04:50.334Z,450.00
2023-02-14T11:05:50.301Z,450.00
2023-02-14T11:06:50.283Z,449.00
2023-02-14T11:07:50.266Z,448.00
2023-02-14T11:08:50.205Z,450.00
2023-02-14T11:09:50.180Z,450.00
2023-02-14T11:10:50.122Z,453.00
2023-02-14T11:11:50.091Z,453.00
2023-02-14T11:12:50.030Z,451.00
2023-02-14T11:13:50.041Z,448.00
2023-02-14T11:14:52.500Z,447.00
2023-02-14T11:15:50.120Z,449.00
2023-02-14T11:16:50.088Z,449.00
2023-02-14T11:17:49.994Z,447.00
2023-02-14T11:18:49.961Z,447.00
2023-02-14T11:19:49.916Z,448.00
2023-02-14T11:20:49.876Z,447.00
2023-02-14T11:21:49.845Z,448.00
2023-02-14T11:22:49.889Z,448.00
2023-02-14T11:23:49.902Z,447.00
2023-02-14T11:24:49.922Z,447.00
2023-02-14T11:25:49.913Z,448.00
2023-02-14T11:26:50.489Z,449.00
2023-02-14T11:27:49.913Z,448.00
2023-02-14T11:28:49.890Z,450.00
2023-02-14T11:29:49.860Z,450.00
2023-02-14T11:30:49.866Z,449.00
2023-02-14T11:31:50.145Z,450.00
2023-02-14T11:32:49.711Z,449.00
2023-02-14T11:33:49.686Z,447.00
2023-02-14T11:34:49.625Z,447.00
2023-02-14T11:35:49.596Z,452.00
2023-02-14T11:36:49.575Z,449.00
2023-02-14T11:37:49.528Z,449.00
2023-02-14T11:38:49.540Z,449.00
2023-02-14T11:39:49.535Z,448.00
2023-02-14T11:40:49.550Z,449.00
2023-02-14T11:41:49.567Z,448.00
2023-02-14T11:42:54.607Z,444.00
2023-02-14T11:43:50.592Z,443.00
2023-02-14T11:44:49.528Z,445.00
2023-02-14T11:45:49.534Z,447.00
2023-02-14T11:46:53.555Z,448.00
2023-02-14T11:47:49.442Z,449.00
2023-02-14T11:48:49.346Z,446.00
2023-02-14T11:49:49.343Z,447.00
2023-02-14T11:50:49.302Z,443.00
2023-02-14T11:51:49.258Z,446.00
2023-02-14T11:52:49.232Z,445.00
2023-02-14T11:53:49.180Z,443.00
2023-02-14T11:54:49.150Z,445.00
2023-02-14T11:55:49.122Z,444.00
2023-02-14T11:56:49.039Z,446.00
2023-02-14T11:57:49.012Z,445.00
2023-02-14T11:58:48.996Z,445.00
2023-02-14T11:59:49.007Z,448.00
2023-02-14T12:00:48.912Z,448.00
2023-02-14T12:01:48.854Z,445.00
2023-02-14T12:02:48.861Z,450.00
2023-02-14T12:03:48.814Z,446.00
2023-02-14T12:04:48.739Z,447.00
2023-02-14T12:05:48.741Z,447.00
2023-02-14T12:06:48.683Z,445.00
2023-02-14T12:07:48.609Z,442.00
2023-02-14T12:08:48.614Z,441.00
2023-02-14T12:09:49.037Z,441.00
2023-02-14T12:10:48.525Z,444.00
2023-02-14T12:11:48.524Z,442.00
2023-02-14T12:12:48.484Z,444.00
2023-02-14T12:13:48.450Z,442.00
2023-02-14T12:14:48.433Z,441.00
2023-02-14T12:15:48.374Z,443.00
2023-02-14T12:16:48.306Z,441.00
2023-02-14T12:17:48.268Z,443.00
2023-02-14T12:18:48.249Z,443.00
2023-02-14T12:19:48.191Z,443.00
2023-02-14T12:20:48.166Z,443.00
2023-02-14T12:21:48.091Z,443.00
2023-02-14T12:22:48.055Z,442.00
2023-02-14T12:23:48.000Z,444.00
2023-02-14T12:24:47.988Z,445.00
2023-02-14T12:25:47.955Z,443.00
2023-02-14T12:26:47.916Z,441.00
2023-02-14T12:27:47.850Z,445.00
2023-02-14T12:28:47.822Z,448.00
2023-02-14T12:29:47.915Z,447.00
2023-02-14T12:30:47.823Z,446.00
2023-02-14T12:31:47.741Z,447.00
2023-02-14T12:32:47.674Z,445.00
2023-02-14T12:33:49.533Z,445.00
2023-02-14T12:34:47.592Z,446.00
2023-02-14T12:35:47.516Z,447.00
2023-02-14T12:36:47.487Z,446.00
2023-02-14T12:37:50.750Z,446.00
2023-02-14T12:38:48.389Z,450.00
2023-02-14T12:39:48.956Z,449.00